Time;durP1;ratioP1;P1;durP2;ratioP2;P2;SDS_P1;SDS_P2;PMS_P1;PMS_P2;Temp;Humidity;BMP_temperature;BMP_pressure;BME280_temperature;BME280_humidity;BME280_pressure;Samples;Min_cycle;Max_cycle;Signal;HPM_P1;HPM_P2
2022/04/27 00:00:24;;;;;;;6.00;3.78;;;6.80;99.90;;;;;;5007232;28;20046;-52
2022/04/27 00:02:50;;;;;;;9.07;3.65;;;6.80;99.90;;;;;;4972794;28;20033;-53
2022/04/27 00:05:16;;;;;;;6.60;3.10;;;6.80;99.90;;;;;;5013676;28;20116;-53
2022/04/27 00:07:42;;;;;;;5.47;3.30;;;6.80;99.90;;;;;;4979636;28;20366;-53
2022/04/27 00:10:08;;;;;;;5.43;3.30;;;6.80;99.90;;;;;;4995877;28;20125;-54
2022/04/27 00:12:37;;;;;;;5.95;3.28;;;6.70;99.90;;;;;;5013405;28;20033;-51
2022/04/27 00:15:04;;;;;;;5.90;3.88;;;6.80;99.90;;;;;;5013192;28;20117;-52
2022/04/27 00:17:30;;;;;;;6.30;3.45;;;6.70;99.90;;;;;;5013072;28;20046;-52
2022/04/27 00:19:56;;;;;;;6.07;3.92;;;6.70;99.90;;;;;;5013443;28;20110;-53
2022/04/27 00:22:22;;;;;;;5.47;3.20;;;6.70;99.90;;;;;;5012968;28;20108;-53
2022/04/27 00:24:48;;;;;;;6.18;3.35;;;6.80;99.90;;;;;;5013122;28;20045;-53
2022/04/27 00:27:14;;;;;;;5.43;3.28;;;6.80;99.90;;;;;;5012998;28;20483;-53
2022/04/27 00:29:39;;;;;;;4.90;3.33;;;6.90;99.90;;;;;;5002989;28;20088;-51
2022/04/27 00:32:05;;;;;;;7.43;3.53;;;6.90;99.90;;;;;;5012736;28;20081;-51
2022/04/27 00:34:31;;;;;;;6.43;2.92;;;6.80;99.90;;;;;;5012815;28;20034;-52
2022/04/27 00:36:57;;;;;;;5.55;3.35;;;6.80;99.90;;;;;;5012990;28;20453;-52
2022/04/27 00:39:22;;;;;;;7.13;3.90;;;6.70;99.90;;;;;;5012934;28;20034;-53
2022/04/27 00:42:00;;;;;;;7.18;3.50;;;6.70;99.90;;;;;;5011446;28;20042;-52
2022/04/27 00:44:26;;;;;;;7.47;3.50;;;6.60;99.90;;;;;;5012915;28;20462;-53
2022/04/27 00:46:52;;;;;;;6.40;3.25;;;6.60;99.90;;;;;;4994803;28;20129;-53
2022/04/27 00:49:18;;;;;;;5.68;2.80;;;6.60;99.90;;;;;;5012965;28;20121;-51
2022/04/27 00:51:44;;;;;;;5.22;2.70;;;6.60;99.90;;;;;;5012237;28;20490;-53
2022/04/27 00:54:10;;;;;;;6.30;3.20;;;6.60;99.90;;;;;;4993180;28;20050;-54
2022/04/27 00:56:38;;;;;;;6.00;3.13;;;6.60;99.90;;;;;;5008763;28;20050;-53
2022/04/27 00:59:03;;;;;;;3.70;1.95;;;6.50;99.90;;;;;;5012471;28;20606;-54
2022/04/27 01:01:29;;;;;;;3.83;2.25;;;6.40;99.90;;;;;;5012226;28;20106;-49
2022/04/27 01:03:56;;;;;;;4.18;2.42;;;6.30;99.90;;;;;;5011303;28;20077;-54
2022/04/27 01:06:22;;;;;;;4.60;2.40;;;6.20;99.90;;;;;;5012448;28;20133;-53
2022/04/27 01:08:48;;;;;;;3.67;2.38;;;6.10;99.90;;;;;;5012274;28;20502;-51
2022/04/27 01:11:15;;;;;;;5.45;2.70;;;6.10;99.90;;;;;;5012017;28;20518;-53
2022/04/27 01:13:41;;;;;;;5.10;2.47;;;6.10;99.90;;;;;;5012340;28;20100;-53
2022/04/27 01:16:07;;;;;;;5.78;2.78;;;6.10;99.90;;;;;;5012006;28;20038;-53
2022/04/27 01:18:33;;;;;;;6.00;3.03;;;6.10;99.90;;;;;;5012234;28;20366;-55
2022/04/27 01:20:59;;;;;;;6.38;3.13;;;6.10;99.90;;;;;;4998846;28;20407;-53
2022/04/27 01:23:25;;;;;;;5.63;2.40;;;6.10;99.90;;;;;;5012241;28;20117;-52
2022/04/27 01:25:56;;;;;;;3.65;2.10;;;6.10;99.90;;;;;;5012163;28;20108;-52
2022/04/27 01:28:24;;;;;;;4.60;2.55;;;6.00;99.90;;;;;;4985113;28;20050;-53
2022/04/27 01:31:01;;;;;;;5.60;2.88;;;5.80;99.90;;;;;;5008375;28;20049;-53
2022/04/27 01:33:28;;;;;;;5.32;3.20;;;5.60;99.90;;;;;;5012027;28;20117;-52
2022/04/27 01:35:54;;;;;;;7.65;3.60;;;5.40;99.90;;;;;;4993953;28;20053;-52
2022/04/27 01:38:20;;;;;;;10.15;4.07;;;5.40;99.90;;;;;;4974528;28;20039;-50
2022/04/27 01:40:47;;;;;;;6.20;3.53;;;5.30;99.90;;;;;;4991897;28;20089;-53
2022/04/27 01:43:16;;;;;;;5.40;3.30;;;5.30;99.90;;;;;;4974603;28;20077;-53
2022/04/27 01:45:45;;;;;;;6.93;3.30;;;5.30;99.90;;;;;;4974721;28;20450;-53
2022/04/27 01:48:12;;;;;;;5.22;3.60;;;5.30;99.90;;;;;;4992240;28;20042;-53
2022/04/27 01:50:38;;;;;;;6.50;3.17;;;5.30;99.90;;;;;;4997602;28;20038;-52
2022/04/27 01:55:48;;;;;;;8.18;4.05;;;5.40;99.90;;;;;;5003147;28;20046;-53
2022/04/27 01:58:15;;;;;;;5.75;3.58;;;5.50;99.90;;;;;;4991822;28;20100;-53
2022/04/27 02:00:40;;;;;;;6.80;3.55;;;5.50;99.90;;;;;;4991837;28;20487;-53
2022/04/27 02:03:06;;;;;;;7.03;4.35;;;5.60;99.90;;;;;;4991871;28;20038;-53
2022/04/27 02:05:32;;;;;;;6.38;4.10;;;5.70;99.90;;;;;;4991920;28;20051;-54
2022/04/27 02:07:57;;;;;;;6.88;4.07;;;5.80;99.90;;;;;;4993196;28;20050;-53
2022/04/27 02:10:23;;;;;;;8.68;3.97;;;5.90;99.90;;;;;;5011398;28;20111;-52
2022/04/27 02:12:49;;;;;;;6.70;4.32;;;6.00;99.90;;;;;;5007760;28;20030;-54
2022/04/27 02:15:15;;;;;;;5.72;3.75;;;6.10;99.90;;;;;;4991823;28;20039;-51
2022/04/27 02:17:40;;;;;;;7.53;3.95;;;6.20;99.90;;;;;;4992408;28;20087;-54
2022/04/27 02:20:07;;;;;;;8.80;3.85;;;6.30;99.90;;;;;;4962517;28;20042;-53
2022/04/27 02:22:35;;;;;;;6.15;3.80;;;6.30;99.90;;;;;;4995631;28;20038;-53
2022/04/27 02:25:02;;;;;;;6.95;3.92;;;6.40;99.90;;;;;;4987622;28;20471;-53
2022/04/27 02:27:28;;;;;;;7.28;4.50;;;6.50;99.90;;;;;;5015153;28;20140;-54
2022/04/27 02:29:55;;;;;;;10.70;4.38;;;6.50;99.90;;;;;;5005789;28;20463;-52
2022/04/27 02:32:21;;;;;;;6.30;3.58;;;6.50;99.90;;;;;;4997427;28;20077;-54
2022/04/27 02:34:46;;;;;;;7.78;3.72;;;6.60;99.90;;;;;;5015403;28;20463;-52
2022/04/27 02:37:12;;;;;;;8.52;3.72;;;6.60;99.90;;;;;;5015065;28;20046;-52
2022/04/27 02:39:38;;;;;;;8.07;4.38;;;6.70;99.90;;;;;;5014947;28;20033;-53
2022/04/27 02:42:05;;;;;;;6.88;3.72;;;6.60;99.90;;;;;;5015048;28;20430;-53
2022/04/27 02:44:31;;;;;;;8.15;4.35;;;6.60;99.90;;;;;;4997798;28;20046;-52
2022/04/27 02:46:56;;;;;;;9.02;4.38;;;6.60;99.90;;;;;;5015036;28;20113;-51
2022/04/27 02:52:07;;;;;;;10.82;4.40;;;6.60;99.90;;;;;;5014900;28;20046;-53
2022/04/27 02:54:33;;;;;;;7.82;4.07;;;6.60;99.90;;;;;;5015100;28;20052;-53
2022/04/27 02:56:59;;;;;;;9.27;4.60;;;6.50;99.90;;;;;;5014811;28;20121;-53
2022/04/27 02:59:25;;;;;;;9.52;5.28;;;6.60;99.90;;;;;;5014690;28;20120;-51
2022/04/27 03:01:50;;;;;;;9.38;5.30;;;6.70;99.90;;;;;;5009683;28;20049;-53
2022/04/27 03:04:16;;;;;;;11.00;5.05;;;6.70;99.90;;;;;;5006480;28;20120;-50
2022/04/27 03:06:41;;;;;;;6.68;4.20;;;6.80;99.90;;;;;;4984046;28;20038;-53
2022/04/27 03:09:07;;;;;;;6.80;4.25;;;6.80;99.90;;;;;;5014727;28;20045;-53
2022/04/27 03:11:33;;;;;;;8.45;4.53;;;6.80;99.90;;;;;;5013177;28;20056;-53
2022/04/27 03:13:59;;;;;;;6.57;3.83;;;6.70;99.90;;;;;;5014692;28;20411;-53
2022/04/27 03:16:25;;;;;;;8.10;4.10;;;6.70;99.90;;;;;;5014261;28;20034;-53
2022/04/27 03:18:51;;;;;;;9.93;4.40;;;6.70;99.90;;;;;;5014786;28;20088;-53
2022/04/27 03:21:17;;;;;;;8.00;4.60;;;6.70;99.90;;;;;;4996837;28;20042;-52
2022/04/27 03:23:42;;;;;;;9.75;4.40;;;6.90;99.90;;;;;;4994737;28;20097;-53
2022/04/27 03:26:08;;;;;;;9.55;4.97;;;6.90;99.90;;;;;;4994793;28;20039;-54
2022/04/27 03:28:34;;;;;;;6.32;4.53;;;7.00;99.90;;;;;;4994577;28;20046;-53
2022/04/27 03:30:59;;;;;;;7.07;4.20;;;7.00;99.90;;;;;;4994588;28;20065;-54
2022/04/27 03:33:25;;;;;;;8.25;4.45;;;7.10;99.90;;;;;;4994481;28;20039;-49
2022/04/27 03:35:51;;;;;;;7.85;4.18;;;7.10;99.90;;;;;;4998531;28;20044;-52
2022/04/27 03:38:18;;;;;;;8.75;4.35;;;7.10;99.90;;;;;;4996560;28;20037;-52
2022/04/27 03:40:44;;;;;;;5.82;3.60;;;7.20;99.90;;;;;;5013886;28;20195;-54
2022/04/27 03:43:10;;;;;;;7.30;4.10;;;7.20;99.90;;;;;;5012920;28;20083;-52
2022/04/27 03:45:35;;;;;;;6.32;3.55;;;7.20;99.90;;;;;;5013783;28;20029;-52
2022/04/27 03:48:01;;;;;;;7.97;4.53;;;7.30;99.90;;;;;;5014428;28;20038;-52
2022/04/27 03:50:27;;;;;;;8.32;4.57;;;7.30;99.90;;;;;;4996103;28;20081;-54
2022/04/27 03:52:53;;;;;;;7.25;4.40;;;7.40;99.90;;;;;;5013847;28;20119;-54
2022/04/27 03:55:19;;;;;;;10.05;4.85;;;7.40;99.90;;;;;;5010466;28;20427;-54
2022/04/27 03:57:44;;;;;;;7.32;4.00;;;7.40;99.90;;;;;;4976692;28;20042;-52
2022/04/27 04:00:12;;;;;;;8.02;4.00;;;7.40;99.90;;;;;;4993893;28;20173;-52
2022/04/27 04:02:37;;;;;;;9.05;4.45;;;7.40;99.90;;;;;;4993861;28;20399;-51
2022/04/27 04:05:07;;;;;;;8.50;4.57;;;7.40;99.90;;;;;;4997335;28;20034;-52
2022/04/27 04:07:33;;;;;;;7.28;4.90;;;7.50;99.90;;;;;;5011982;28;20050;-53
2022/04/27 04:09:59;;;;;;;7.22;4.78;;;7.50;99.90;;;;;;5013063;28;20060;-53
2022/04/27 04:12:25;;;;;;;7.70;4.88;;;7.50;99.90;;;;;;5013089;28;20049;-53
2022/04/27 04:14:51;;;;;;;6.68;3.72;;;7.50;99.90;;;;;;5013241;28;20049;-52
2022/04/27 04:17:17;;;;;;;5.68;3.70;;;7.60;99.90;;;;;;5013202;28;20096;-53
2022/04/27 04:19:43;;;;;;;7.07;3.83;;;7.50;99.90;;;;;;4995709;28;20130;-52
2022/04/27 04:22:09;;;;;;;6.57;3.88;;;7.50;99.90;;;;;;4995661;28;20077;-53
2022/04/27 04:24:35;;;;;;;8.68;4.60;;;7.50;99.90;;;;;;5008167;28;20165;-53
2022/04/27 04:29:46;;;;;;;6.93;4.00;;;7.40;99.90;;;;;;5006047;28;20125;-53
2022/04/27 04:32:11;;;;;;;9.60;4.85;;;7.30;99.90;;;;;;5007234;28;20117;-52
2022/04/27 04:34:37;;;;;;;9.10;4.97;;;7.20;99.90;;;;;;5012926;28;20505;-53
2022/04/27 04:37:03;;;;;;;8.43;5.00;;;7.20;99.90;;;;;;4995613;28;20653;-51
2022/04/27 04:39:29;;;;;;;8.95;4.60;;;7.20;99.90;;;;;;5012759;28;20041;-53
2022/04/27 04:41:55;;;;;;;9.32;5.32;;;7.10;99.90;;;;;;5012294;28;20097;-53
2022/04/27 04:44:20;;;;;;;12.85;5.72;;;7.20;99.90;;;;;;5012870;28;20030;-53
2022/04/27 04:46:46;;;;;;;9.73;5.30;;;7.20;99.90;;;;;;5012785;28;20041;-53
2022/04/27 04:49:12;;;;;;;9.60;4.40;;;7.10;99.90;;;;;;5012740;28;20557;-52
2022/04/27 04:51:37;;;;;;;10.05;5.28;;;7.20;99.90;;;;;;5012677;28;20113;-53
2022/04/27 04:54:03;;;;;;;12.30;5.82;;;7.20;99.90;;;;;;5012640;28;20421;-53
2022/04/27 04:56:30;;;;;;;8.35;4.35;;;7.20;99.90;;;;;;4998821;28;20073;-53
2022/04/27 04:58:55;;;;;;;8.10;4.65;;;7.20;99.90;;;;;;4992845;28;20403;-52
2022/04/27 05:01:21;;;;;;;9.73;5.63;;;7.30;99.90;;;;;;4992935;28;20038;-55
2022/04/27 05:03:47;;;;;;;9.63;5.47;;;7.30;99.90;;;;;;5012631;28;20038;-52
2022/04/27 05:06:14;;;;;;;11.73;6.13;;;7.40;99.90;;;;;;5011593;28;20087;-53
2022/04/27 05:08:39;;;;;;;8.20;5.68;;;7.40;99.90;;;;;;5000183;28;20481;-53
2022/04/27 05:11:05;;;;;;;9.85;5.78;;;7.40;99.90;;;;;;5012177;28;20058;-52
2022/04/27 05:13:34;;;;;;;11.98;5.43;;;7.50;99.90;;;;;;5012566;28;20049;-52
2022/04/27 05:15:59;;;;;;;8.60;5.45;;;7.50;99.90;;;;;;5012151;28;20049;-54
2022/04/27 05:18:25;;;;;;;7.32;4.65;;;7.60;99.90;;;;;;5012396;28;20038;-53
2022/04/27 05:20:51;;;;;;;9.63;5.03;;;7.70;99.90;;;;;;5012190;28;20352;-53
2022/04/27 05:23:16;;;;;;;10.48;4.85;;;7.70;99.90;;;;;;5012485;28;20395;-52
2022/04/27 05:25:42;;;;;;;9.85;5.80;;;7.70;99.90;;;;;;5012181;28;20041;-52
2022/04/27 05:28:08;;;;;;;7.32;3.50;;;7.80;99.90;;;;;;5005375;28;20049;-53
2022/04/27 05:33:18;;;;;;;10.50;6.18;;;7.90;99.90;;;;;;4992587;28;20064;-53
2022/04/27 05:35:44;;;;;;;9.32;5.72;;;7.70;99.90;;;;;;4992164;28;20041;-52
2022/04/27 05:38:11;;;;;;;8.63;4.97;;;7.60;99.90;;;;;;4991966;28;20038;-52
2022/04/27 05:40:39;;;;;;;11.30;6.03;;;7.50;99.90;;;;;;4974397;28;20074;-51
2022/04/27 05:43:06;;;;;;;9.20;5.88;;;7.50;99.90;;;;;;4992579;28;20121;-51
2022/04/27 05:45:32;;;;;;;9.68;5.20;;;7.40;99.90;;;;;;4992269;28;20077;-51
2022/04/27 05:47:59;;;;;;;8.77;5.18;;;7.40;99.90;;;;;;4974724;28;20045;-53
2022/04/27 05:50:24;;;;;;;10.90;5.10;;;7.50;99.90;;;;;;4995436;28;20080;-48
2022/04/27 05:52:52;;;;;;;10.27;6.03;;;7.50;99.90;;;;;;4993627;28;20061;-52
2022/04/27 05:55:19;;;;;;;13.23;5.95;;;7.60;99.90;;;;;;4990492;28;20407;-51
2022/04/27 05:57:45;;;;;;;7.38;4.57;;;7.70;99.90;;;;;;4974557;28;20193;-53
2022/04/27 06:00:12;;;;;;;11.38;5.13;;;7.90;99.90;;;;;;4991687;28;20114;-55
2022/04/27 06:02:38;;;;;;;10.48;5.25;;;8.00;99.90;;;;;;4992139;28;20471;-52
2022/04/27 06:05:05;;;;;;;9.68;5.13;;;8.10;99.90;;;;;;4991984;28;20042;-53
2022/04/27 06:07:31;;;;;;;12.63;6.15;;;8.10;99.90;;;;;;4991578;28;20104;-53
2022/04/27 06:09:56;;;;;;;10.50;5.70;;;8.10;99.90;;;;;;5009951;28;20447;-56
2022/04/27 06:12:30;;;;;;;9.80;5.38;;;8.10;99.90;;;;;;5011120;28;20499;-53
2022/04/27 06:14:56;;;;;;;8.25;4.40;;;8.20;99.90;;;;;;5011158;28;20498;-51
2022/04/27 06:17:22;;;;;;;9.15;5.07;;;8.20;99.90;;;;;;5011267;28;20095;-52
2022/04/27 06:19:47;;;;;;;11.63;6.00;;;8.30;99.90;;;;;;5011316;28;20030;-52
2022/04/27 06:22:13;;;;;;;9.00;4.93;;;8.30;99.90;;;;;;4993642;28;20075;-52
2022/04/27 06:24:39;;;;;;;9.05;5.25;;;8.30;99.90;;;;;;5011021;28;20091;-53
2022/04/27 06:27:05;;;;;;;8.15;4.78;;;8.40;99.90;;;;;;5011028;28;20552;-52
2022/04/27 06:29:30;;;;;;;9.68;5.57;;;8.50;99.90;;;;;;4998121;28;20483;-52
2022/04/27 06:31:56;;;;;;;11.35;5.93;;;8.50;99.90;;;;;;4993444;28;20042;-52
2022/04/27 06:34:21;;;;;;;9.50;4.88;;;8.60;99.90;;;;;;5010977;28;20088;-52
2022/04/27 06:36:47;;;;;;;10.10;5.20;;;8.70;99.90;;;;;;5009701;28;20089;-52
2022/04/27 06:39:14;;;;;;;9.82;5.15;;;8.70;99.90;;;;;;4993367;28;20055;-53
2022/04/27 06:41:41;;;;;;;8.60;5.05;;;8.80;99.90;;;;;;5010796;28;20370;-53
2022/04/27 06:44:07;;;;;;;9.25;4.85;;;8.90;99.90;;;;;;4993791;28;20142;-53
2022/04/27 06:46:33;;;;;;;13.30;5.00;;;8.90;99.90;;;;;;5010741;28;20126;-56
2022/04/27 06:48:58;;;;;;;11.63;5.40;;;9.00;99.90;;;;;;5011203;28;20060;-52
2022/04/27 06:51:24;;;;;;;9.43;5.22;;;9.10;99.90;;;;;;5011061;28;20042;-52
2022/04/27 06:53:49;;;;;;;17.08;7.93;;;9.10;99.90;;;;;;5009498;28;20172;-53
2022/04/27 06:56:16;;;;;;;13.05;7.28;;;9.10;99.90;;;;;;4999255;28;20038;-51
2022/04/27 06:58:42;;;;;;;14.73;7.65;;;9.20;99.90;;;;;;4991005;28;20046;-52
2022/04/27 07:01:08;;;;;;;14.32;7.47;;;9.20;99.90;;;;;;4965474;28;20126;-54
2022/04/27 07:03:36;;;;;;;8.13;5.43;;;9.20;99.90;;;;;;5004858;28;20128;-52
2022/04/27 07:06:02;;;;;;;10.50;5.78;;;9.30;99.90;;;;;;4994778;28;20222;-52
2022/04/27 07:08:29;;;;;;;11.27;6.03;;;9.30;99.90;;;;;;5000579;28;20049;-52
2022/04/27 07:10:55;;;;;;;9.60;4.53;;;9.40;99.90;;;;;;5014010;28;20501;-53
2022/04/27 07:13:25;;;;;;;10.07;4.63;;;9.50;99.90;;;;;;4994949;28;20084;-52
2022/04/27 07:15:51;;;;;;;10.05;5.15;;;9.60;99.90;;;;;;4994331;28;20050;-53
2022/04/27 07:18:17;;;;;;;9.50;5.30;;;9.70;99.90;;;;;;4967589;28;20042;-52
2022/04/27 07:20:43;;;;;;;11.35;5.15;;;9.80;99.90;;;;;;5013934;28;20046;-53
2022/04/27 07:23:09;;;;;;;9.18;4.80;;;9.80;99.90;;;;;;4980399;28;20505;-52
2022/04/27 07:25:35;;;;;;;11.10;5.82;;;9.90;99.90;;;;;;4996311;28;20557;-46
2022/04/27 07:28:00;;;;;;;12.77;5.40;;;10.00;99.90;;;;;;5014188;28;20034;-52
2022/04/27 07:30:26;;;;;;;13.30;5.97;;;10.00;99.90;;;;;;5013821;28;20037;-47
2022/04/27 07:32:52;;;;;;;7.95;5.10;;;10.10;99.90;;;;;;5014200;28;20069;-50
2022/04/27 07:35:18;;;;;;;9.93;4.93;;;10.10;99.90;;;;;;4967606;28;20042;-51
2022/04/27 07:37:44;;;;;;;9.23;4.55;;;10.10;99.90;;;;;;4994308;28;20038;-52
2022/04/27 07:40:12;;;;;;;9.65;4.43;;;10.10;99.90;;;;;;4994265;28;20106;-52
2022/04/27 07:42:39;;;;;;;6.78;4.05;;;10.20;99.90;;;;;;5000583;28;20048;-52
2022/04/27 07:45:06;;;;;;;7.20;3.50;;;10.30;99.90;;;;;;5013960;28;20055;-52
2022/04/27 07:47:43;;;;;;;9.25;4.22;;;10.30;99.90;;;;;;4994004;28;20503;-53
2022/04/27 07:50:10;;;;;;;10.52;3.90;;;10.40;99.20;;;;;;4985240;28;20124;-52
2022/04/27 07:52:36;;;;;;;10.60;3.92;;;10.40;98.80;;;;;;5012249;28;20053;-51
2022/04/27 07:55:03;;;;;;;9.80;4.18;;;10.50;98.20;;;;;;5013751;28;20169;-49
2022/04/27 07:57:30;;;;;;;9.20;4.45;;;10.50;97.80;;;;;;5013559;28;20038;-52
2022/04/27 07:59:56;;;;;;;8.35;4.05;;;10.50;97.10;;;;;;5013692;28;20052;-53
2022/04/27 08:02:22;;;;;;;8.43;4.15;;;10.50;96.60;;;;;;5013884;28;20499;-53
2022/04/27 08:04:47;;;;;;;10.15;4.05;;;10.70;96.90;;;;;;5013582;28;20038;-52
2022/04/27 08:07:13;;;;;;;7.25;3.60;;;10.80;96.60;;;;;;5013291;28;20522;-51
2022/04/27 08:09:39;;;;;;;7.30;3.70;;;10.90;95.60;;;;;;5013356;28;20140;-52
2022/04/27 08:12:04;;;;;;;7.15;3.90;;;11.00;95.20;;;;;;5012007;28;20113;-52
2022/04/27 08:14:31;;;;;;;5.95;3.15;;;11.10;94.40;;;;;;5012151;28;20483;-52
2022/04/27 08:16:59;;;;;;;7.38;3.72;;;11.10;94.40;;;;;;4994849;28;20475;-49
2022/04/27 08:19:25;;;;;;;6.47;2.65;;;11.20;93.60;;;;;;5013234;28;20141;-53
2022/04/27 08:21:52;;;;;;;5.03;2.58;;;11.30;93.60;;;;;;5013188;28;20527;-53
2022/04/27 08:24:19;;;;;;;5.25;1.98;;;11.30;92.50;;;;;;5013120;28;20125;-51
2022/04/27 08:26:48;;;;;;;5.13;2.30;;;11.30;91.40;;;;;;5013116;28;20482;-53
2022/04/27 08:29:14;;;;;;;7.40;1.75;;;11.40;90.10;;;;;;5003218;28;20041;-52
2022/04/27 08:31:40;;;;;;;6.22;2.97;;;11.40;88.60;;;;;;5012726;28;20462;-52
2022/04/27 08:34:06;;;;;;;6.63;2.20;;;11.60;89.50;;;;;;5013100;28;20522;-53
2022/04/27 08:36:32;;;;;;;5.82;2.28;;;11.60;86.30;;;;;;5013072;28;20050;-50
2022/04/27 08:38:59;;;;;;;4.80;1.90;;;11.60;85.80;;;;;;5012981;28;20064;-53
2022/04/27 08:41:28;;;;;;;4.57;2.00;;;11.60;84.70;;;;;;5003214;28;20050;-51
2022/04/27 08:43:54;;;;;;;3.80;1.30;;;11.60;84.00;;;;;;5010233;28;20053;-52
2022/04/27 08:46:20;;;;;;;4.15;1.92;;;11.60;81.30;;;;;;5013063;28;20038;-53
2022/04/27 08:48:50;;;;;;;3.83;1.63;;;11.70;80.60;;;;;;4991390;28;20506;-57
2022/04/27 08:51:15;;;;;;;4.28;1.70;;;11.70;79.80;;;;;;5009902;28;20042;-52
2022/04/27 08:53:42;;;;;;;5.38;1.83;;;11.80;79.10;;;;;;4990736;28;20092;-53
2022/04/27 08:56:08;;;;;;;5.97;1.77;;;11.90;78.70;;;;;;5005092;28;20042;-53
2022/04/27 08:58:34;;;;;;;4.03;2.00;;;12.10;77.20;;;;;;5012765;28;20053;-53
2022/04/27 09:01:00;;;;;;;5.63;2.70;;;12.00;76.10;;;;;;5012066;28;20060;-53
2022/04/27 09:03:34;;;;;;;5.00;2.20;;;12.00;74.80;;;;;;4995446;28;20190;-53
2022/04/27 09:06:02;;;;;;;4.05;1.65;;;12.00;74.00;;;;;;4993091;28;20034;-49
2022/04/27 09:08:39;;;;;;;4.20;1.70;;;12.00;73.30;;;;;;4998430;28;20050;-54
2022/04/27 09:11:15;;;;;;;10.43;1.95;;;12.10;70.50;;;;;;5002208;28;20042;-54
2022/04/27 09:13:54;;;;;;;3.65;1.80;;;12.30;73.20;;;;;;5006140;28;20107;-51
2022/04/27 09:16:23;;;;;;;4.20;1.88;;;12.40;71.50;;;;;;4994423;28;20046;-53
2022/04/27 09:21:58;;;;;;;3.80;1.67;;;12.60;67.60;;;;;;5000404;28;20332;-53
2022/04/27 09:24:24;;;;;;;4.55;2.17;;;12.70;66.10;;;;;;4995166;28;20324;-51
2022/04/27 09:27:09;;;;;;;5.07;1.58;;;12.70;67.80;;;;;;4992357;28;20034;-54
2022/04/27 09:29:35;;;;;;;5.30;1.80;;;12.80;66.10;;;;;;4993816;28;20165;-54
2022/04/27 09:32:03;;;;;;;4.70;2.00;;;12.90;66.70;;;;;;4980979;28;20049;-53
2022/04/27 09:34:29;;;;;;;4.55;2.00;;;13.00;68.20;;;;;;5010288;28;20049;-53
2022/04/27 09:37:11;;;;;;;5.53;1.70;;;13.00;67.50;;;;;;5011279;28;20056;-53
2022/04/27 09:39:37;;;;;;;7.83;2.00;;;13.00;66.90;;;;;;4992088;28;20499;-54
2022/04/27 09:42:08;;;;;;;4.13;1.50;;;12.90;66.80;;;;;;5007855;28;20045;-45
2022/04/27 09:44:37;;;;;;;5.97;2.33;;;12.90;65.50;;;;;;4998177;28;20104;-53
2022/04/27 09:47:04;;;;;;;5.35;1.60;;;12.90;65.00;;;;;;5007447;28;20058;-53
2022/04/27 09:49:38;;;;;;;3.45;1.23;;;12.90;66.50;;;;;;4976991;28;20089;-53
2022/04/27 09:52:06;;;;;;;4.65;1.58;;;13.00;64.20;;;;;;5011588;28;20410;-53
2022/04/27 09:54:36;;;;;;;3.22;1.60;;;13.00;63.40;;;;;;5011546;28;20602;-53
2022/04/27 09:57:09;;;;;;;4.57;1.63;;;12.90;62.80;;;;;;4995358;28;20048;-53
2022/04/27 09:59:36;;;;;;;3.83;1.83;;;12.90;63.30;;;;;;4991829;28;20034;-52
2022/04/27 10:02:08;;;;;;;4.65;1.75;;;12.80;65.00;;;;;;4971339;28;20043;-53
2022/04/27 10:04:36;;;;;;;5.07;1.67;;;12.80;63.70;;;;;;5003425;28;20042;-53
2022/04/27 10:07:04;;;;;;;3.83;1.70;;;12.80;64.20;;;;;;5008787;28;20517;-53
2022/04/27 10:09:30;;;;;;;4.07;1.58;;;12.70;64.20;;;;;;5011473;28;20557;-50
2022/04/27 10:11:59;;;;;;;4.53;1.85;;;12.70;64.20;;;;;;5011077;28;20228;-54
2022/04/27 10:14:28;;;;;;;6.43;1.80;;;12.70;62.80;;;;;;5011077;28;20092;-53
2022/04/27 10:16:55;;;;;;;4.75;2.28;;;12.80;64.30;;;;;;5011057;28;20050;-53
2022/04/27 10:19:22;;;;;;;5.43;1.92;;;12.90;63.50;;;;;;4981009;28;20073;-55
2022/04/27 10:24:43;;;;;;;5.05;2.20;;;13.00;62.30;;;;;;5010989;28;20050;-53
2022/04/27 10:27:21;;;;;;;6.20;1.70;;;13.10;62.50;;;;;;4993726;28;20062;-53
2022/04/27 10:30:08;;;;;;;6.28;2.00;;;13.20;61.50;;;;;;5011171;28;20467;-53
2022/04/27 10:32:38;;;;;;;5.05;1.65;;;13.30;60.50;;;;;;5011133;28;20447;-54
2022/04/27 10:35:13;;;;;;;5.60;1.55;;;13.30;59.40;;;;;;5011241;28;20212;-54
2022/04/27 10:37:57;;;;;;;3.72;1.98;;;13.40;59.60;;;;;;4993568;28;20141;-53
2022/04/27 10:40:33;;;;;;;4.25;1.67;;;13.50;59.20;;;;;;5014548;28;20052;-54
2022/04/27 10:43:14;;;;;;;5.60;2.00;;;13.60;58.60;;;;;;5015096;28;20037;-54
2022/04/27 10:45:44;;;;;;;5.10;1.77;;;13.70;58.40;;;;;;4997636;28;20391;-51
2022/04/27 10:48:24;;;;;;;5.85;2.00;;;13.70;58.00;;;;;;5015001;28;20506;-52
2022/04/27 10:51:00;;;;;;;4.80;2.03;;;13.70;57.00;;;;;;5015034;28;20037;-54
2022/04/27 10:53:27;;;;;;;3.72;1.77;;;13.60;56.80;;;;;;5015004;28;20037;-54
2022/04/27 10:55:55;;;;;;;5.72;2.00;;;13.60;58.80;;;;;;5013535;28;20077;-54
2022/04/27 10:58:37;;;;;;;5.18;2.00;;;13.50;57.70;;;;;;4995197;28;20034;-54
2022/04/27 11:01:11;;;;;;;6.03;2.10;;;13.40;58.20;;;;;;4998076;28;20042;-54
2022/04/27 11:03:38;;;;;;;5.03;1.75;;;13.40;59.30;;;;;;5014767;28;20461;-53
2022/04/27 11:06:10;;;;;;;4.43;2.15;;;13.30;59.50;;;;;;5014723;28;20084;-52
2022/04/27 11:08:35;;;;;;;4.65;1.95;;;13.20;60.60;;;;;;4997185;28;20470;-54
2022/04/27 11:11:06;;;;;;;5.85;2.00;;;13.20;61.60;;;;;;5014484;28;20071;-54
2022/04/27 11:13:36;;;;;;;6.43;1.98;;;13.10;62.90;;;;;;5014354;28;20116;-53
2022/04/27 11:16:09;;;;;;;4.55;1.73;;;13.00;61.30;;;;;;5014331;28;20058;-53
2022/04/27 11:19:07;;;;;;;5.15;2.28;;;12.90;60.70;;;;;;5014214;28;20494;-53
2022/04/27 11:21:33;;;;;;;6.78;2.30;;;12.80;63.20;;;;;;4951442;28;20089;-54
2022/04/27 11:23:59;;;;;;;6.45;2.40;;;12.80;62.60;;;;;;5012437;28;20044;-54
2022/04/27 11:26:25;;;;;;;8.65;3.17;;;12.70;62.40;;;;;;4996638;28;20034;-53
2022/04/27 11:28:53;;;;;;;4.88;2.15;;;12.80;63.40;;;;;;5014229;28;20037;-54
2022/04/27 11:31:20;;;;;;;4.40;2.58;;;12.80;65.50;;;;;;5014080;28;20081;-54
2022/04/27 11:33:46;;;;;;;4.93;2.33;;;12.90;64.80;;;;;;5013973;28;20042;-54
2022/04/27 11:36:25;;;;;;;4.95;2.25;;;12.90;65.20;;;;;;4996581;28;20065;-50
2022/04/27 11:38:52;;;;;;;5.05;2.30;;;12.90;65.20;;;;;;5013959;28;20040;-53
2022/04/27 11:41:20;;;;;;;6.72;2.78;;;13.00;66.00;;;;;;5014024;28;20042;-53
2022/04/27 11:43:50;;;;;;;4.38;2.38;;;13.10;67.10;;;;;;5014278;28;20042;-53
2022/04/27 11:46:17;;;;;;;6.47;2.60;;;13.10;68.20;;;;;;5000823;28;20038;-54
2022/04/27 11:48:50;;;;;;;7.22;2.40;;;13.20;67.50;;;;;;5014394;28;20050;-53
2022/04/27 11:51:16;;;;;;;4.75;2.35;;;13.20;66.40;;;;;;5012480;28;20510;-51
2022/04/27 11:53:49;;;;;;;6.28;3.05;;;13.00;66.60;;;;;;5014055;28;20066;-54
2022/04/27 11:56:16;;;;;;;5.55;2.65;;;12.90;66.40;;;;;;5013495;28;20037;-52
2022/04/27 11:58:45;;;;;;;5.93;2.58;;;12.80;67.30;;;;;;5013651;28;20053;-52
2022/04/27 12:01:18;;;;;;;5.28;3.03;;;12.70;68.10;;;;;;5013517;28;20403;-53
2022/04/27 12:03:44;;;;;;;5.03;2.40;;;12.70;68.80;;;;;;5014029;28;20042;-54
2022/04/27 12:06:18;;;;;;;8.00;2.97;;;12.80;67.70;;;;;;5013583;28;20053;-53
2022/04/27 12:08:43;;;;;;;6.57;3.00;;;12.90;68.20;;;;;;5001331;28;20049;-53
2022/04/27 12:11:09;;;;;;;5.30;2.60;;;12.90;67.60;;;;;;4995250;28;20058;-53
2022/04/27 12:13:35;;;;;;;5.28;2.38;;;13.00;67.00;;;;;;5013658;28;20046;-49
2022/04/27 12:16:01;;;;;;;6.70;2.50;;;13.00;68.00;;;;;;5013237;28;20042;-48
2022/04/27 12:18:31;;;;;;;5.53;2.40;;;13.10;66.90;;;;;;5013526;28;20343;-52
2022/04/27 12:20:57;;;;;;;5.50;2.60;;;13.20;64.90;;;;;;5013316;28;20471;-54
2022/04/27 12:23:36;;;;;;;6.00;2.40;;;13.30;65.50;;;;;;5013350;28;20491;-53
2022/04/27 12:26:02;;;;;;;5.40;2.25;;;13.40;65.70;;;;;;4995554;28;20048;-51
2022/04/27 12:28:33;;;;;;;8.43;2.22;;;13.50;65.70;;;;;;5013177;28;20045;-52
2022/04/27 12:31:00;;;;;;;8.80;2.20;;;13.50;62.30;;;;;;5013142;28;20034;-52
2022/04/27 12:33:37;;;;;;;5.88;2.67;;;13.40;62.70;;;;;;5000342;28;20046;-53
2022/04/27 12:39:10;;;;;;;7.97;2.00;;;13.70;63.80;;;;;;5007003;28;20050;-54
2022/04/27 12:41:39;;;;;;;5.18;2.25;;;14.00;63.10;;;;;;4993211;28;20043;-52
2022/04/27 12:44:06;;;;;;;6.20;1.90;;;14.10;62.00;;;;;;5003775;28;20096;-52
2022/04/27 12:46:31;;;;;;;9.25;2.10;;;14.10;61.40;;;;;;4995144;28;20491;-53
2022/04/27 12:49:04;;;;;;;6.90;1.92;;;14.30;61.70;;;;;;4995455;28;20042;-53
2022/04/27 12:51:35;;;;;;;6.47;2.00;;;14.40;60.10;;;;;;5011496;28;20042;-52
2022/04/27 12:54:04;;;;;;;8.45;2.08;;;14.30;59.10;;;;;;5011734;28;20457;-54
2022/04/27 12:56:32;;;;;;;5.28;1.67;;;14.30;58.40;;;;;;5006968;28;20038;-53
2022/04/27 12:59:06;;;;;;;5.97;2.00;;;14.30;59.60;;;;;;4988158;28;20038;-56
2022/04/27 13:01:31;;;;;;;7.55;2.53;;;14.20;59.50;;;;;;4991690;28;20042;-52
2022/04/27 13:03:57;;;;;;;6.93;2.63;;;14.00;59.30;;;;;;5012852;28;20042;-51
2022/04/27 13:06:23;;;;;;;5.68;2.42;;;14.00;60.30;;;;;;4995090;28;20562;-53
2022/04/27 13:08:50;;;;;;;4.72;2.08;;;13.80;60.70;;;;;;4994896;28;20120;-52
2022/04/27 13:14:00;;;;;;;8.30;2.50;;;13.50;62.70;;;;;;5012524;28;20077;-50